createdAt,value
2023-08-25T00:01:48.128Z,41.97
2023-08-25T00:04:15.745Z,40.78
2023-08-25T00:06:42.923Z,41.95
2023-08-25T00:09:10.748Z,38.88
2023-08-25T00:11:39.968Z,39.78
2023-08-25T00:14:06.944Z,41.08
2023-08-25T00:16:33.886Z,39.70
2023-08-25T00:19:00.994Z,40.30
2023-08-25T00:21:28.190Z,38.83
2023-08-25T00:23:55.276Z,38.15
2023-08-25T00:26:22.324Z,38.65
2023-08-25T00:28:49.368Z,40.83
2023-08-25T00:31:16.334Z,40.13
2023-08-25T00:33:51.097Z,38.80
2023-08-25T00:36:18.522Z,45.28
2023-08-25T00:38:45.630Z,39.47
2023-08-25T00:41:12.684Z,40.30
2023-08-25T00:43:41.018Z,41.13
2023-08-25T00:46:09.709Z,40.08
2023-08-25T00:48:37.723Z,41.70
2023-08-25T00:51:07.205Z,43.65
2023-08-25T00:53:35.530Z,45.13
2023-08-25T00:56:04.575Z,40.40
2023-08-25T00:58:31.695Z,40.13
2023-08-25T01:01:02.554Z,41.80
2023-08-25T01:03:29.763Z,40.10
2023-08-25T01:05:58.463Z,38.60
2023-08-25T01:08:25.835Z,38.75
2023-08-25T01:10:53.770Z,39.60
2023-08-25T01:13:33.080Z,38.33
2023-08-25T01:16:00.352Z,38.95
2023-08-25T01:18:31.130Z,41.45
2023-08-25T01:21:00.287Z,41.45
2023-08-25T01:24:04.030Z,40.05
2023-08-25T01:26:31.477Z,39.10
2023-08-25T01:28:58.478Z,40.72
2023-08-25T01:31:25.628Z,40.22
2023-08-25T01:33:54.661Z,40.28
2023-08-25T01:36:33.161Z,42.60
2023-08-25T01:39:10.236Z,43.40
2023-08-25T01:41:48.358Z,45.95
2023-08-25T01:44:19.637Z,42.75
2023-08-25T01:46:51.707Z,40.22
2023-08-25T01:49:20.616Z,44.92
2023-08-25T01:51:47.779Z,42.53
2023-08-25T01:54:15.144Z,43.40
2023-08-25T01:56:42.449Z,40.95
2023-08-25T01:59:09.447Z,47.70
2023-08-25T02:01:38.065Z,46.47
2023-08-25T02:04:06.205Z,45.38
2023-08-25T02:06:33.666Z,46.33
2023-08-25T02:09:00.801Z,49.63
2023-08-25T02:11:27.851Z,46.33
2023-08-25T02:13:54.837Z,47.13
2023-08-25T02:16:21.998Z,43.53
2023-08-25T02:18:49.094Z,45.03
2023-08-25T02:21:16.060Z,51.35
2023-08-25T02:23:43.011Z,48.35
2023-08-25T02:26:09.948Z,47.10
2023-08-25T02:28:38.321Z,45.65
2023-08-25T02:31:05.282Z,45.65
2023-08-25T02:33:34.430Z,49.05
2023-08-25T02:36:01.373Z,44.15
2023-08-25T02:38:29.574Z,44.85
2023-08-25T02:40:56.526Z,46.53
2023-08-25T02:43:25.103Z,46.38
2023-08-25T02:45:52.070Z,46.97
2023-08-25T02:48:19.165Z,43.40
2023-08-25T02:50:46.121Z,44.72
2023-08-25T02:53:13.054Z,46.58
2023-08-25T02:55:40.502Z,42.17
2023-08-25T02:58:07.629Z,44.47
2023-08-25T03:00:34.626Z,42.95
2023-08-25T03:03:01.658Z,46.50
2023-08-25T03:05:28.752Z,44.22
2023-08-25T03:07:56.117Z,45.08
2023-08-25T03:10:24.155Z,43.65
2023-08-25T03:12:52.373Z,41.80
2023-08-25T03:15:20.797Z,44.92
2023-08-25T03:17:47.800Z,42.88
2023-08-25T03:20:14.933Z,39.92
2023-08-25T03:22:41.969Z,45.85
2023-08-25T03:25:09.182Z,44.25
2023-08-25T03:27:39.181Z,37.92
2023-08-25T03:30:07.823Z,42.42
2023-08-25T03:32:35.033Z,40.55
2023-08-25T03:35:02.744Z,39.88
2023-08-25T03:37:29.751Z,39.30
2023-08-25T03:39:56.783Z,32.72
2023-08-25T03:42:23.740Z,35.00
2023-08-25T03:44:50.912Z,34.95
2023-08-25T03:47:17.867Z,33.20
2023-08-25T03:49:44.873Z,33.35
2023-08-25T03:52:11.816Z,33.35
2023-08-25T03:54:38.818Z,33.92
2023-08-25T03:57:08.088Z,31.63
2023-08-25T03:59:36.420Z,30.52
2023-08-25T04:02:05.094Z,32.15
2023-08-25T04:04:33.659Z,31.75
2023-08-25T04:07:01.047Z,31.65
2023-08-25T04:09:28.099Z,31.00
2023-08-25T04:11:57.208Z,33.20
2023-08-25T04:14:24.641Z,32.92
2023-08-25T04:16:51.952Z,34.78
2023-08-25T04:19:22.729Z,31.58
2023-08-25T04:21:50.322Z,29.73
2023-08-25T04:24:20.859Z,30.80
2023-08-25T04:26:47.800Z,30.08
2023-08-25T04:29:14.789Z,29.85
2023-08-25T04:31:41.723Z,30.20
2023-08-25T04:34:08.745Z,29.88
2023-08-25T04:36:38.040Z,27.55
2023-08-25T04:39:05.158Z,27.95
2023-08-25T04:41:32.179Z,29.35
2023-08-25T04:43:59.164Z,28.60
2023-08-25T04:46:27.505Z,29.90
2023-08-25T04:48:54.584Z,28.05
2023-08-25T04:51:21.591Z,28.33
2023-08-25T04:53:48.633Z,28.02
2023-08-25T04:56:16.290Z,27.70
2023-08-25T04:58:43.339Z,27.40
2023-08-25T05:01:10.459Z,27.60
2023-08-25T05:03:37.620Z,27.88
2023-08-25T05:06:04.845Z,25.58
2023-08-25T05:08:31.838Z,25.58
2023-08-25T05:10:59.860Z,25.10
2023-08-25T05:13:26.844Z,25.70
2023-08-25T05:15:55.333Z,25.85
2023-08-25T05:18:22.480Z,26.23
2023-08-25T05:20:49.516Z,24.60
2023-08-25T05:23:16.488Z,23.77
2023-08-25T05:25:43.873Z,24.00
2023-08-25T05:28:10.955Z,22.77
2023-08-25T05:30:37.888Z,23.52
2023-08-25T05:33:05.253Z,23.63
2023-08-25T05:35:32.491Z,22.67
2023-08-25T05:37:59.514Z,22.58
2023-08-25T05:40:26.536Z,22.63
2023-08-25T05:42:53.538Z,21.98
2023-08-25T05:45:20.487Z,20.92
2023-08-25T05:47:47.439Z,21.25
2023-08-25T05:50:14.542Z,20.42
2023-08-25T05:52:42.666Z,20.23
2023-08-25T05:55:12.978Z,20.13
2023-08-25T05:57:40.388Z,20.52
2023-08-25T06:00:08.008Z,19.73
2023-08-25T06:02:35.073Z,19.80
2023-08-25T06:05:02.054Z,19.08
2023-08-25T06:07:29.082Z,18.15
2023-08-25T06:09:56.086Z,17.85
2023-08-25T06:12:23.179Z,18.02
2023-08-25T06:14:52.355Z,17.58
2023-08-25T06:17:19.382Z,17.92
2023-08-25T06:19:46.403Z,17.15
2023-08-25T06:22:13.414Z,17.25
2023-08-25T06:24:40.440Z,17.15
2023-08-25T06:27:07.384Z,17.30
2023-08-25T06:29:34.345Z,17.30
2023-08-25T06:32:01.367Z,16.65
2023-08-25T06:34:28.997Z,16.85
2023-08-25T06:36:57.309Z,16.65
2023-08-25T06:39:24.367Z,16.38
2023-08-25T06:41:51.378Z,16.63
2023-08-25T06:44:18.389Z,16.50
2023-08-25T06:46:45.374Z,16.80
2023-08-25T06:49:13.001Z,16.13
2023-08-25T06:51:42.444Z,16.48
2023-08-25T06:54:09.415Z,16.45
2023-08-25T06:56:36.448Z,16.50
2023-08-25T06:59:03.552Z,16.50
2023-08-25T07:01:30.582Z,16.58
2023-08-25T07:03:57.777Z,16.73
2023-08-25T07:06:24.724Z,16.65
2023-08-25T07:08:51.741Z,17.20
2023-08-25T07:11:18.861Z,16.63
2023-08-25T07:13:45.903Z,17.67
2023-08-25T07:16:13.079Z,17.15
2023-08-25T07:18:40.042Z,17.10
2023-08-25T07:21:07.720Z,17.75
2023-08-25T07:23:35.012Z,17.73
2023-08-25T07:26:01.993Z,18.60
2023-08-25T07:28:29.063Z,18.00
2023-08-25T07:30:56.230Z,17.48
2023-08-25T07:33:23.603Z,17.80
2023-08-25T07:35:50.614Z,17.95
2023-08-25T07:38:17.799Z,19.98
2023-08-25T07:40:44.806Z,19.60
2023-08-25T07:43:11.787Z,20.88
2023-08-25T07:45:39.848Z,19.85
2023-08-25T07:48:07.278Z,19.92
2023-08-25T07:50:34.648Z,19.40
2023-08-25T07:53:01.737Z,18.35
2023-08-25T07:55:28.858Z,18.17
2023-08-25T07:57:56.303Z,17.95
2023-08-25T08:00:23.898Z,18.00
2023-08-25T08:02:51.671Z,18.20
2023-08-25T08:05:19.677Z,18.17
2023-08-25T08:07:49.416Z,18.30
2023-08-25T08:10:19.068Z,18.02
2023-08-25T08:12:47.186Z,17.58
2023-08-25T08:15:15.578Z,17.77
2023-08-25T08:17:42.991Z,17.60
2023-08-25T08:20:14.060Z,17.73
2023-08-25T08:22:43.119Z,17.73
2023-08-25T08:25:12.237Z,18.13
2023-08-25T08:27:41.007Z,18.30
2023-08-25T08:30:08.838Z,17.90
2023-08-25T08:32:40.199Z,18.15
2023-08-25T08:35:09.043Z,18.38
2023-08-25T08:37:37.067Z,18.00
2023-08-25T08:40:09.463Z,18.50
2023-08-25T08:42:40.784Z,18.23
2023-08-25T08:45:11.332Z,17.80
2023-08-25T08:47:39.372Z,17.90
2023-08-25T08:50:08.402Z,18.25
2023-08-25T08:52:36.294Z,17.70
2023-08-25T08:55:07.318Z,17.98
2023-08-25T08:57:34.324Z,18.00
2023-08-25T09:00:01.453Z,18.05
2023-08-25T09:02:30.415Z,18.20
2023-08-25T09:05:01.685Z,18.35
2023-08-25T09:07:34.216Z,17.58
2023-08-25T09:10:02.476Z,17.90
2023-08-25T09:12:30.829Z,17.73
2023-08-25T09:14:57.990Z,18.10
2023-08-25T09:17:25.248Z,17.33
2023-08-25T09:19:52.477Z,17.75
2023-08-25T09:22:20.632Z,18.60
2023-08-25T09:24:47.716Z,17.75
2023-08-25T09:27:25.790Z,17.70
2023-08-25T09:30:08.577Z,16.95
2023-08-25T09:32:35.890Z,17.40
2023-08-25T09:35:14.330Z,17.05
2023-08-25T09:37:44.759Z,17.42
2023-08-25T09:40:16.235Z,17.40
2023-08-25T09:42:43.559Z,17.40
2023-08-25T09:45:13.851Z,17.10
2023-08-25T09:47:44.462Z,16.92
2023-08-25T09:50:18.925Z,16.95
2023-08-25T09:52:47.957Z,17.13
2023-08-25T09:55:16.717Z,16.98
2023-08-25T09:57:50.019Z,16.98
2023-08-25T10:00:20.778Z,16.85
2023-08-25T10:02:49.595Z,17.00
2023-08-25T10:05:19.084Z,17.48
2023-08-25T10:07:46.793Z,16.88
2023-08-25T10:10:14.386Z,17.70
2023-08-25T10:12:47.327Z,17.02
2023-08-25T10:15:19.063Z,17.00
2023-08-25T10:17:50.351Z,16.58
2023-08-25T10:20:20.501Z,16.55
2023-08-25T10:22:49.067Z,16.88
2023-08-25T10:25:16.835Z,16.92
2023-08-25T10:27:46.412Z,17.20
2023-08-25T10:30:15.998Z,17.08
2023-08-25T10:32:51.195Z,16.98
2023-08-25T10:35:39.621Z,17.00
2023-08-25T10:38:23.749Z,16.95
2023-08-25T10:40:52.411Z,17.13
2023-08-25T10:43:26.882Z,17.05
2023-08-25T10:45:54.401Z,18.00
2023-08-25T10:48:35.732Z,17.73
2023-08-25T10:51:13.255Z,17.63
2023-08-25T10:53:45.957Z,17.17
2023-08-25T10:56:16.840Z,17.33
2023-08-25T10:58:54.334Z,17.60
2023-08-25T11:01:21.501Z,17.55
2023-08-25T11:04:27.885Z,17.35
2023-08-25T11:06:59.346Z,17.88
2023-08-25T11:09:27.404Z,17.80
2023-08-25T11:12:07.808Z,18.60
2023-08-25T11:14:40.538Z,17.73
2023-08-25T11:17:09.319Z,18.00
2023-08-25T11:19:39.238Z,18.00
2023-08-25T11:22:15.380Z,18.02
2023-08-25T11:24:42.592Z,17.67
2023-08-25T11:27:12.186Z,17.83
2023-08-25T11:29:46.679Z,17.92
2023-08-25T11:32:14.554Z,18.42
2023-08-25T11:34:42.312Z,17.95
2023-08-25T11:37:15.089Z,17.77
2023-08-25T11:39:48.277Z,17.77
2023-08-25T11:42:21.961Z,18.03
2023-08-25T11:44:48.969Z,18.17
2023-08-25T11:47:16.700Z,18.55
2023-08-25T11:49:43.960Z,17.25
2023-08-25T11:52:11.399Z,17.10
2023-08-25T11:54:47.405Z,17.35
2023-08-25T11:57:15.017Z,18.20
2023-08-25T11:59:43.110Z,17.33
2023-08-25T12:02:14.834Z,17.63
2023-08-25T12:04:41.959Z,18.13
2023-08-25T12:07:08.961Z,17.80
2023-08-25T12:09:36.253Z,17.65
2023-08-25T12:12:04.925Z,18.00
2023-08-25T12:14:33.368Z,17.52
2023-08-25T12:17:00.376Z,17.77
2023-08-25T12:19:28.110Z,17.52
2023-08-25T12:21:56.271Z,17.88
2023-08-25T12:24:23.773Z,17.65
2023-08-25T12:26:51.520Z,17.55
2023-08-25T12:29:22.418Z,18.15
2023-08-25T12:31:49.449Z,17.48
2023-08-25T12:34:16.412Z,18.23
2023-08-25T12:36:43.562Z,17.95
2023-08-25T12:39:10.678Z,17.80
2023-08-25T12:41:37.696Z,17.00
2023-08-25T12:44:05.417Z,17.42
2023-08-25T12:46:32.550Z,17.65
2023-08-25T12:48:59.901Z,17.52
2023-08-25T12:51:27.783Z,18.95
2023-08-25T12:53:57.795Z,20.30
2023-08-25T12:56:25.211Z,19.40
2023-08-25T12:58:55.269Z,18.80
2023-08-25T13:01:22.378Z,17.70
2023-08-25T13:03:49.826Z,17.58
2023-08-25T13:06:16.865Z,17.60
2023-08-25T13:08:43.873Z,17.75
2023-08-25T13:11:11.024Z,17.35
2023-08-25T13:13:38.137Z,17.67
2023-08-25T13:16:09.564Z,17.90
2023-08-25T13:18:36.749Z,17.35
2023-08-25T13:21:03.957Z,17.27
2023-08-25T13:23:41.190Z,17.80
2023-08-25T13:26:12.198Z,17.42
2023-08-25T13:28:39.224Z,17.38
2023-08-25T13:31:06.178Z,17.40
2023-08-25T13:33:35.511Z,16.92
2023-08-25T13:36:06.307Z,17.50
2023-08-25T13:38:33.304Z,18.25
2023-08-25T13:41:00.278Z,18.52
2023-08-25T13:43:28.296Z,17.92
2023-08-25T13:45:56.213Z,17.95
2023-08-25T13:48:23.250Z,17.90
2023-08-25T13:50:51.042Z,18.05
2023-08-25T13:53:18.070Z,19.15
2023-08-25T13:55:45.599Z,19.45
2023-08-25T13:58:13.415Z,19.58
2023-08-25T14:00:41.854Z,19.63
2023-08-25T14:03:09.050Z,19.20
2023-08-25T14:05:36.987Z,18.90
2023-08-25T14:08:04.641Z,18.75
2023-08-25T14:10:31.727Z,18.95
2023-08-25T14:12:58.853Z,18.25
2023-08-25T14:15:25.811Z,18.63
2023-08-25T14:17:53.044Z,18.50
2023-08-25T14:20:20.364Z,19.58
2023-08-25T14:22:47.596Z,18.65
2023-08-25T14:25:14.810Z,18.58
2023-08-25T14:27:41.910Z,19.17
2023-08-25T14:30:09.489Z,19.48
2023-08-25T14:32:36.562Z,19.08
2023-08-25T14:35:05.358Z,23.38
2023-08-25T14:37:33.663Z,21.95
2023-08-25T14:40:01.070Z,23.13
2023-08-25T14:42:28.100Z,18.38
2023-08-25T14:44:55.656Z,18.65
2023-08-25T14:47:22.670Z,18.50
2023-08-25T14:49:49.914Z,18.50
2023-08-25T14:52:20.197Z,18.95
2023-08-25T14:54:47.229Z,18.98
2023-08-25T14:57:14.429Z,18.67
2023-08-25T14:59:41.466Z,18.73
2023-08-25T15:02:08.459Z,20.02
2023-08-25T15:04:36.825Z,19.08
2023-08-25T15:07:04.372Z,18.50
2023-08-25T15:09:31.334Z,20.20
2023-08-25T15:11:58.282Z,19.02
2023-08-25T15:14:25.397Z,18.55
2023-08-25T15:16:52.461Z,18.10
2023-08-25T15:19:19.637Z,18.70
2023-08-25T15:21:46.589Z,18.35
2023-08-25T15:24:13.525Z,18.13
2023-08-25T15:26:40.865Z,18.23
2023-08-25T15:29:09.250Z,18.17
2023-08-25T15:31:37.870Z,18.20
2023-08-25T15:34:05.594Z,18.42
2023-08-25T15:36:32.537Z,18.23
2023-08-25T15:39:02.094Z,17.98
2023-08-25T15:41:29.037Z,18.23
2023-08-25T15:43:59.326Z,18.13
2023-08-25T15:46:26.349Z,18.30
2023-08-25T15:48:53.329Z,18.65
2023-08-25T15:51:20.521Z,18.38
2023-08-25T15:53:47.473Z,18.45
2023-08-25T15:56:15.447Z,18.23
2023-08-25T15:58:45.385Z,18.45
2023-08-25T16:01:13.568Z,19.48
2023-08-25T16:03:40.611Z,19.15
2023-08-25T16:06:08.431Z,18.75
2023-08-25T16:08:35.806Z,17.90
2023-08-25T16:11:08.591Z,18.30
2023-08-25T16:13:38.398Z,19.85
2023-08-25T16:16:05.979Z,19.55
2023-08-25T16:18:33.939Z,19.63
2023-08-25T16:21:03.117Z,18.60
2023-08-25T16:23:36.348Z,18.75
2023-08-25T16:26:04.659Z,18.70
2023-08-25T16:28:35.411Z,19.70
2023-08-25T16:31:06.255Z,19.08
2023-08-25T16:33:34.450Z,18.33
2023-08-25T16:36:08.417Z,19.08
2023-08-25T16:41:04.563Z,18.02
2023-08-25T16:43:31.769Z,18.20
2023-08-25T16:45:58.787Z,18.70
2023-08-25T16:48:25.862Z,18.80
2023-08-25T16:50:52.962Z,18.83
2023-08-25T16:53:20.590Z,19.13
2023-08-25T16:55:47.690Z,19.45
2023-08-25T16:58:15.392Z,19.55
2023-08-25T17:00:43.275Z,18.60
2023-08-25T17:03:10.837Z,18.80
2023-08-25T17:05:38.035Z,18.90
2023-08-25T17:08:08.630Z,18.60
2023-08-25T17:10:37.308Z,18.58
2023-08-25T17:13:05.606Z,19.60
2023-08-25T17:15:35.614Z,19.45
2023-08-25T17:18:02.725Z,19.35
2023-08-25T17:20:29.835Z,18.92
2023-08-25T17:22:57.301Z,19.00
2023-08-25T17:25:24.578Z,19.15
2023-08-25T17:27:51.561Z,19.63
2023-08-25T17:30:18.585Z,19.52
2023-08-25T17:32:45.822Z,19.30
2023-08-25T17:35:13.011Z,19.35
2023-08-25T17:37:40.089Z,19.33
2023-08-25T17:40:07.582Z,19.05
2023-08-25T17:42:35.326Z,19.83
2023-08-25T17:45:02.343Z,19.63
2023-08-25T17:47:31.069Z,19.80
2023-08-25T17:49:58.441Z,19.35
2023-08-25T17:52:25.435Z,20.35
2023-08-25T17:54:52.559Z,20.45
2023-08-25T17:57:19.764Z,20.90
2023-08-25T17:59:46.991Z,20.77
2023-08-25T18:02:15.713Z,19.75
2023-08-25T18:04:42.827Z,20.35
2023-08-25T18:07:13.199Z,21.08
2023-08-25T18:09:41.897Z,22.65
2023-08-25T18:12:09.922Z,23.50
2023-08-25T18:14:37.328Z,23.88
2023-08-25T18:17:04.686Z,23.70
2023-08-25T18:19:31.800Z,23.73
2023-08-25T18:21:58.901Z,23.15
2023-08-25T18:24:26.317Z,21.55
2023-08-25T18:26:53.433Z,21.90
2023-08-25T18:29:20.398Z,22.33
2023-08-25T18:31:47.429Z,20.52
2023-08-25T18:34:14.623Z,20.85
2023-08-25T18:36:41.928Z,21.23
2023-08-25T18:39:09.288Z,21.38
2023-08-25T18:41:36.323Z,22.23
2023-08-25T18:44:03.516Z,21.33
2023-08-25T18:46:30.840Z,21.90
2023-08-25T18:48:57.849Z,22.08
2023-08-25T18:51:25.965Z,22.10
2023-08-25T18:53:54.184Z,21.70
2023-08-25T18:56:22.511Z,22.13
2023-08-25T18:58:51.719Z,21.65
2023-08-25T19:01:19.590Z,21.42
2023-08-25T19:03:47.457Z,22.63
2023-08-25T19:06:15.231Z,21.88
2023-08-25T19:08:42.216Z,21.92
2023-08-25T19:11:09.405Z,22.27
2023-08-25T19:13:36.486Z,21.50
2023-08-25T19:16:04.825Z,21.33
2023-08-25T19:18:31.859Z,21.38
2023-08-25T19:21:02.707Z,21.70
2023-08-25T19:23:33.746Z,21.20
2023-08-25T19:26:05.627Z,21.50
2023-08-25T19:28:32.619Z,21.58
2023-08-25T19:31:04.092Z,21.23
2023-08-25T19:33:32.764Z,21.60
2023-08-25T19:36:00.293Z,21.55
2023-08-25T19:38:27.867Z,21.67
2023-08-25T19:40:55.225Z,21.13
2023-08-25T19:43:22.359Z,21.60
2023-08-25T19:45:51.454Z,22.13
2023-08-25T19:48:20.779Z,21.63
2023-08-25T19:50:55.761Z,21.88
2023-08-25T19:53:22.941Z,21.92
2023-08-25T19:55:51.494Z,22.08
2023-08-25T19:58:18.698Z,22.05
2023-08-25T20:00:46.015Z,22.10
2023-08-25T20:03:15.707Z,21.98
2023-08-25T20:06:02.724Z,21.27
2023-08-25T20:08:30.389Z,21.80
2023-08-25T20:11:00.233Z,20.88
2023-08-25T20:13:27.720Z,21.40
2023-08-25T20:15:54.978Z,21.48
2023-08-25T20:18:22.046Z,21.20
2023-08-25T20:20:50.109Z,21.00
2023-08-25T20:23:18.625Z,20.45
2023-08-25T20:25:49.128Z,20.77
2023-08-25T20:28:16.656Z,21.42
2023-08-25T20:30:46.470Z,21.30
2023-08-25T20:33:15.052Z,21.20
2023-08-25T20:35:42.133Z,21.85
2023-08-25T20:38:09.192Z,21.65
2023-08-25T20:40:37.554Z,22.02
2023-08-25T20:43:04.778Z,21.20
2023-08-25T20:45:32.015Z,21.23
2023-08-25T20:47:59.181Z,21.42
2023-08-25T20:50:26.305Z,21.35
2023-08-25T20:52:53.490Z,21.48
2023-08-25T20:55:20.830Z,22.00
2023-08-25T20:57:47.831Z,20.80
2023-08-25T21:00:15.051Z,21.05
2023-08-25T21:02:47.495Z,21.23
2023-08-25T21:05:16.963Z,19.98
2023-08-25T21:07:45.204Z,20.75
2023-08-25T21:10:12.281Z,21.00
2023-08-25T21:12:39.259Z,21.50
2023-08-25T21:15:07.466Z,20.90
2023-08-25T21:17:34.482Z,20.95
2023-08-25T21:20:01.548Z,21.13
2023-08-25T21:22:28.653Z,21.65
2023-08-25T21:24:55.625Z,21.70
2023-08-25T21:27:22.604Z,21.63
2023-08-25T21:29:49.615Z,21.92
2023-08-25T21:32:16.643Z,21.45
2023-08-25T21:34:43.808Z,21.10
2023-08-25T21:37:10.750Z,22.05
2023-08-25T21:39:37.820Z,21.95
2023-08-25T21:42:05.239Z,21.98
2023-08-25T21:44:33.486Z,21.77
2023-08-25T21:47:00.648Z,21.88
2023-08-25T21:49:27.594Z,22.13
2023-08-25T21:51:54.727Z,21.90
2023-08-25T21:54:21.659Z,22.05
2023-08-25T21:56:48.606Z,21.90
2023-08-25T21:59:15.546Z,22.30
2023-08-25T22:01:42.584Z,22.25
2023-08-25T22:04:12.332Z,23.05
2023-08-25T22:06:39.793Z,22.90
2023-08-25T22:09:07.858Z,22.85
2023-08-25T22:11:36.366Z,23.67
2023-08-25T22:14:03.755Z,23.00
2023-08-25T22:16:30.854Z,23.17
2023-08-25T22:18:57.886Z,23.38
2023-08-25T22:21:24.962Z,23.35
2023-08-25T22:23:51.892Z,24.05
2023-08-25T22:26:18.853Z,23.02
2023-08-25T22:28:45.884Z,23.33
2023-08-25T22:31:12.925Z,23.63
2023-08-25T22:36:09.838Z,22.77
2023-08-25T22:38:36.842Z,23.63
2023-08-25T22:41:05.633Z,23.40
2023-08-25T22:43:33.209Z,23.77
2023-08-25T22:46:07.657Z,23.85
2023-08-25T22:48:34.609Z,23.80
2023-08-25T22:51:01.647Z,24.10
2023-08-25T22:53:28.705Z,24.38
2023-08-25T22:55:56.514Z,24.80
2023-08-25T22:58:24.308Z,25.42
2023-08-25T23:00:51.578Z,27.65
2023-08-25T23:03:18.733Z,30.60
2023-08-25T23:05:45.984Z,31.50
2023-08-25T23:08:13.020Z,32.25
2023-08-25T23:10:41.665Z,32.15
2023-08-25T23:13:09.171Z,33.72
2023-08-25T23:15:36.972Z,34.72
2023-08-25T23:18:05.300Z,33.17
2023-08-25T23:20:35.709Z,34.72
2023-08-25T23:23:02.663Z,35.85
2023-08-25T23:25:29.623Z,35.42
2023-08-25T23:27:56.820Z,34.85
2023-08-25T23:30:24.305Z,35.55
2023-08-25T23:32:52.332Z,35.30
2023-08-25T23:35:19.374Z,36.85
2023-08-25T23:37:46.369Z,36.53
2023-08-25T23:40:13.435Z,36.97
2023-08-25T23:42:40.509Z,37.22
2023-08-25T23:45:07.982Z,37.10
2023-08-25T23:47:36.219Z,37.42
2023-08-25T23:50:04.185Z,38.55
2023-08-25T23:52:31.133Z,38.92
2023-08-25T23:54:58.506Z,39.35
2023-08-25T23:57:26.017Z,38.10
2023-08-25T23:59:53.578Z,35.55
